To NAV CANADA Home Page Login to a new session Search on AWWS site Feedback and Comments Disclaimer Vers la page française équivalente Tips FAQ What's new on the site To the Forecasts and Observations / NOTAM section To "File a Flight Plan" website Publications and other links Update of the User's profile FIC Telephone Numbers My Weather Data Folder Route Weather Data Regional Weather Data Local Weather Data To the Forecasts and Observations / NOTAM section
Request Generated 03/26/2015 at 19:06:45 UTC . Weather information available at that time is displayed.

METAR/TAF

SAINT JOHN/NB    

METAR CYSJ 261900Z 21014KT 1/4SM R23/1400V1800FT/N FG VV001 03/02
A2976 RMK FG8 PRESRR SLP081=
SPECI CYSJ 261849Z 20011KT 1/4SM R23/1600FT/N FG VV001 03/02 A2974
RMK FG8 SLP075=
METAR CYSJ 261800Z 21013KT 1/2SM R23/1600V2200FT/N FG VV002 03/02
A2976 RMK FG8 PRESFR SLP084=
SPECI CYSJ 261734Z 21012KT 1/2SM R23/2600FT/N FG VV002 03/02 A2979
RMK FG8 PRESFR SLP091=
METAR CYSJ 261700Z 21013KT 1SM R23/P6000FT/N BR OVC002 04/03 A2981
RMK SC8 SLP098=

TAF CYSJ 261742Z 2618/2706 21012KT 3SM BR OVC004 TEMPO 2618/2622
1/2SM FG VV002 PROB30 2618/2622 3/8SM FG OVC001
FM262200 22008KT 3SM -RA BR OVC006 TEMPO 2622/2702 3/4SM -DZ -RA
BR OVC002 PROB40 2622/2702 3/8SM -DZ FG OVC001
FM270200 VRB03KT 3/4SM -RA BR OVC003
RMK NXT FCST BY 270000Z=
Your time UTC time
Weather data provided by Environment Canada and NAV CANADA